Watts, OK (74964)

2:48 PM CDT on July 28, 2015 (GMT -0500)
Lake Forrest Heights | | Change Station
CLOSE
Current Station
Personal Weather Station
Location: Siloam Springs, AR
Elevation: 1148 ft
Nearby Weather Stations

Elev 1148 ft 36.22 °N, 94.54 °W | Updated 3 minutes ago

Clear
Clear
95.2 °F
Feels Like 110 °F
N
0.0
Wind Variable Wind from SSW
Gusts 2.2 mph

Today
High -- | Low -- °F
--% Chance of Precip.
Yesterday
High -- | Low -- °F
Precip. -- in
6:22 AM 8:27 PM
Waxing Gibbous, 91% visible
Pressure 29.99 in
Visibility -9999.0 miles
Clouds Clear
Heat Index 110 °F
Dew Point 77 °F
Humidity 56%
Rainfall 0.00 in
Snow Depth Not available.
UV 11 out of 12
Pollen 5.10 out of 12
Air Quality Not available.
Flu Activity Not available.
METAR KSLG 281935Z AUTO 20014G18KT CLR 35/22 A2999 RMK AO1

More Conditions Fewer Conditions

Pressure 29.99 in
Visibility -9999.0 miles
Clouds Clear
Heat Index 110 °F
Dew Point 77 °F
Humidity 56%
Rainfall 0.00 in
Snow Depth Not available.
UV 11 out of 12
Pollen 5.10 out of 12
Air Quality Not available.
Flu Activity Not available.
METAR KSLG 281935Z AUTO 20014G18KT CLR 35/22 A2999 RMK AO1

More Conditions Fewer Conditions

A strong ridge of high pressure will aid in providing some of the warmest temperatures of the Summer thus far along the West Coast, while dangerously high heat index values up to 110 degrees will be possible from southern Iowa through northern Louisiana. Residents are urged to take precaution while working outside.

10-Day Weather Forecast

×

Almanac

Astronomy

Jul. 28, 2015 Rise Set
Actual Time
Civil Twilight
Nautical Twilight
Astronomical Twilight
Moon
Length of Visible Light
Length of Day
Tomorrow will be .
, % of the Moon is Illuminated

Today's Extremes

State Highs State Lows

Community

WunderPhotos

Upload Photos

1,841,935 photos uploaded!

WunderBlogs® & News

Nearby

Air Quality

  Air Quality AQ Index Pollutant
Not available.

Snow Depth

Station Depth Elevation

Earthquake Activity

City Distance Mag. Time & Date
Minimum magnitude displayed is 2.5.

Coastal Water Temperatures

Place Temperature

Stations

Nearby Weather Stations

Station Location Temp. Windchill Dew Point Humidity Wind Precip. Elev Updated Type